Aviation Digital Data Service (ADDS)

Output produced by METARs form (1147 UTC 01 August 2015)
found at http://aviationweather.gov/adds/metars/
 
KBDR 011123Z 0112/0212 VRB03KT P6SM FEW100 
     FM011400 24007KT P6SM SCT100 
     FM011800 24011KT P6SM SCT060 
     FM012200 26007KT P6SM SCT060 
     FM020200 VRB04KT P6SM SKC